createdAt,value
2018-07-23T00:00:39.746Z,1011.02
2018-07-23T00:01:39.704Z,1011.00
2018-07-23T00:02:39.659Z,1011.05
2018-07-23T00:03:39.623Z,1011.07
2018-07-23T00:04:39.611Z,1011.05
2018-07-23T00:05:39.553Z,1011.07
2018-07-23T00:06:39.521Z,1011.06
2018-07-23T00:07:39.483Z,1011.04
2018-07-23T00:08:39.444Z,1011.05
2018-07-23T00:09:39.405Z,1011.01
2018-07-23T00:10:39.389Z,1011.04
2018-07-23T00:11:39.333Z,1011.01
2018-07-23T00:12:39.293Z,1011.06
2018-07-23T00:13:39.253Z,1011.03
2018-07-23T00:14:39.212Z,1011.05
2018-07-23T00:15:39.196Z,1011.01
2018-07-23T00:16:39.139Z,1011.05
2018-07-23T00:17:39.098Z,1011.05
2018-07-23T00:18:39.077Z,1011.08
2018-07-23T00:19:39.028Z,1011.04
2018-07-23T00:20:39.021Z,1011.01
2018-07-23T00:21:38.962Z,1011.03
2018-07-23T00:22:38.909Z,1011.04
2018-07-23T00:23:38.874Z,1011.07
2018-07-23T00:24:38.836Z,1011.09
2018-07-23T00:25:38.799Z,1011.05
2018-07-23T00:26:38.788Z,1011.04
2018-07-23T00:27:38.729Z,1011.06
2018-07-23T00:28:38.688Z,1011.07
2018-07-23T00:29:38.647Z,1011.01
2018-07-23T00:30:38.619Z,1011.02
2018-07-23T00:31:38.597Z,1011.05
2018-07-23T00:32:38.539Z,1011.06
2018-07-23T00:33:38.509Z,1011.06
2018-07-23T00:34:38.462Z,1011.10
2018-07-23T00:35:38.421Z,1011.10
2018-07-23T00:36:38.406Z,1011.09
2018-07-23T00:37:38.350Z,1011.10
2018-07-23T00:38:38.313Z,1011.07
2018-07-23T00:39:38.277Z,1011.07
2018-07-23T00:40:38.243Z,1011.10
2018-07-23T00:41:38.233Z,1011.14
2018-07-23T00:42:38.156Z,1011.12
2018-07-23T00:43:38.125Z,1011.12
2018-07-23T00:44:38.088Z,1011.12
2018-07-23T00:45:38.051Z,1011.08
2018-07-23T00:46:38.012Z,1011.10
2018-07-23T00:47:38.000Z,1011.10
2018-07-23T00:48:37.931Z,1011.08
2018-07-23T00:49:37.896Z,1011.09
2018-07-23T00:50:37.862Z,1011.08
2018-07-23T00:51:37.837Z,1011.09
2018-07-23T00:52:37.809Z,1011.12
2018-07-23T00:53:37.751Z,1011.10
2018-07-23T00:54:37.708Z,1011.10
2018-07-23T00:55:37.668Z,1011.15
2018-07-23T00:56:37.631Z,1011.12
2018-07-23T00:57:37.617Z,1011.14
2018-07-23T00:58:47.631Z,1011.13
2018-07-23T00:59:37.521Z,1011.15
2018-07-23T01:00:37.490Z,1011.18
2018-07-23T01:01:37.448Z,1011.14
2018-07-23T01:02:37.414Z,1011.11
2018-07-23T01:03:37.395Z,1011.13
2018-07-23T01:04:37.326Z,1011.17
2018-07-23T01:05:37.290Z,1011.13
2018-07-23T01:06:37.258Z,1011.12
2018-07-23T01:07:37.217Z,1011.16
2018-07-23T01:08:37.205Z,1011.18
2018-07-23T01:09:37.148Z,1011.19
2018-07-23T01:10:37.109Z,1011.17
2018-07-23T01:11:37.071Z,1011.17
2018-07-23T01:12:37.028Z,1011.15
2018-07-23T01:13:37.015Z,1011.14
2018-07-23T01:14:36.959Z,1011.16
2018-07-23T01:15:36.921Z,1011.15
2018-07-23T01:16:36.874Z,1011.13
2018-07-23T01:17:36.838Z,1011.15
2018-07-23T01:18:36.797Z,1011.15
2018-07-23T01:19:36.782Z,1011.16
2018-07-23T01:20:36.734Z,1011.15
2018-07-23T01:21:36.695Z,1011.14
2018-07-23T01:22:36.652Z,1011.17
2018-07-23T01:23:36.618Z,1011.16
2018-07-23T01:24:36.591Z,1011.15
2018-07-23T01:25:36.537Z,1011.14
2018-07-23T01:26:36.495Z,1011.13
2018-07-23T01:27:36.456Z,1011.14
2018-07-23T01:28:36.429Z,1011.10
2018-07-23T01:29:36.408Z,1011.10
2018-07-23T01:30:36.344Z,1011.11
2018-07-23T01:31:36.309Z,1011.15
2018-07-23T01:32:36.273Z,1011.13
2018-07-23T01:33:36.241Z,1011.13
2018-07-23T01:34:36.225Z,1011.15
2018-07-23T01:35:36.161Z,1011.13
2018-07-23T01:36:36.116Z,1011.14
2018-07-23T01:37:36.078Z,1011.16
2018-07-23T01:38:36.040Z,1011.15
2018-07-23T01:39:36.007Z,1011.17
2018-07-23T01:40:35.994Z,1011.17
2018-07-23T01:41:35.935Z,1011.14
2018-07-23T01:42:35.898Z,1011.16
2018-07-23T01:43:35.860Z,1011.15
2018-07-23T01:44:35.822Z,1011.16
2018-07-23T01:45:35.794Z,1011.15
2018-07-23T01:46:35.740Z,1011.16
2018-07-23T01:47:35.709Z,1011.14
2018-07-23T01:48:35.658Z,1011.15
2018-07-23T01:49:35.628Z,1011.19
2018-07-23T01:50:35.608Z,1011.17
2018-07-23T01:51:35.545Z,1011.19
2018-07-23T01:52:35.519Z,1011.17
2018-07-23T01:53:35.475Z,1011.16
2018-07-23T01:54:35.442Z,1011.17
2018-07-23T01:55:35.400Z,1011.18
2018-07-23T01:56:35.384Z,1011.17
2018-07-23T01:57:35.318Z,1011.14
2018-07-23T01:58:35.283Z,1011.14
2018-07-23T01:59:35.250Z,1011.17
2018-07-23T02:00:35.214Z,1011.16
2018-07-23T02:01:35.193Z,1011.17
2018-07-23T02:02:35.132Z,1011.18
2018-07-23T02:03:35.094Z,1011.18
2018-07-23T02:04:35.060Z,1011.19
2018-07-23T02:05:35.025Z,1011.20
2018-07-23T02:06:35.006Z,1011.22
2018-07-23T02:07:34.945Z,1011.22
2018-07-23T02:08:34.899Z,1011.27
2018-07-23T02:09:34.862Z,1011.26
2018-07-23T02:10:34.821Z,1011.22
2018-07-23T02:11:34.815Z,1011.25
2018-07-23T02:12:34.758Z,1011.23
2018-07-23T02:13:34.721Z,1011.24
2018-07-23T02:14:45.190Z,1011.22
2018-07-23T02:15:34.638Z,1011.25
2018-07-23T02:16:34.604Z,1011.24
2018-07-23T02:17:34.586Z,1011.24
2018-07-23T02:18:34.523Z,1011.24
2018-07-23T02:19:34.481Z,1011.26
2018-07-23T02:20:34.442Z,1011.28
2018-07-23T02:21:34.401Z,1011.27
2018-07-23T02:22:34.396Z,1011.27
2018-07-23T02:23:34.337Z,1011.32
2018-07-23T02:24:34.303Z,1011.34
2018-07-23T02:25:34.273Z,1011.34
2018-07-23T02:26:34.217Z,1011.34
2018-07-23T02:27:34.247Z,1011.35
2018-07-23T02:28:34.140Z,1011.34
2018-07-23T02:29:34.100Z,1011.34
2018-07-23T02:30:34.071Z,1011.36
2018-07-23T02:31:34.042Z,1011.32
2018-07-23T02:32:33.992Z,1011.34
2018-07-23T02:33:33.973Z,1011.32
2018-07-23T02:34:33.918Z,1011.32
2018-07-23T02:35:33.878Z,1011.32
2018-07-23T02:36:33.845Z,1011.31
2018-07-23T02:37:33.803Z,1011.35
2018-07-23T02:38:33.787Z,1011.32
2018-07-23T02:39:33.733Z,1011.32
2018-07-23T02:40:33.681Z,1011.28
2018-07-23T02:41:33.651Z,1011.37
2018-07-23T02:42:33.614Z,1011.36
2018-07-23T02:43:33.597Z,1011.39
2018-07-23T02:44:33.541Z,1011.40
2018-07-23T02:45:33.494Z,1011.40
2018-07-23T02:46:33.456Z,1011.41
2018-07-23T02:47:33.416Z,1011.40
2018-07-23T02:48:33.418Z,1011.38
2018-07-23T02:49:33.347Z,1011.41
2018-07-23T02:50:33.302Z,1011.38
2018-07-23T02:51:33.262Z,1011.38
2018-07-23T02:52:33.223Z,1011.37
2018-07-23T02:53:33.189Z,1011.37
2018-07-23T02:54:33.178Z,1011.39
2018-07-23T02:55:33.118Z,1011.41
2018-07-23T02:56:33.084Z,1011.39
2018-07-23T02:57:33.042Z,1011.37
2018-07-23T02:58:33.000Z,1011.36
2018-07-23T02:59:33.059Z,1011.36
2018-07-23T03:00:32.919Z,1011.37
2018-07-23T03:01:32.883Z,1011.38
2018-07-23T03:02:32.852Z,1011.38
2018-07-23T03:03:32.808Z,1011.37
2018-07-23T03:04:32.793Z,1011.33
2018-07-23T03:05:32.730Z,1011.37
2018-07-23T03:06:32.697Z,1011.38
2018-07-23T03:07:32.660Z,1011.37
2018-07-23T03:08:32.620Z,1011.38
2018-07-23T03:09:42.260Z,1011.39
2018-07-23T03:10:32.545Z,1011.37
2018-07-23T03:11:32.506Z,1011.36
2018-07-23T03:12:32.463Z,1011.37
2018-07-23T03:13:32.419Z,1011.35
2018-07-23T03:14:32.386Z,1011.35
2018-07-23T03:15:32.369Z,1011.34
2018-07-23T03:16:32.317Z,1011.35
2018-07-23T03:17:32.277Z,1011.34
2018-07-23T03:18:32.234Z,1011.37
2018-07-23T03:19:32.192Z,1011.36
2018-07-23T03:20:32.196Z,1011.37
2018-07-23T03:21:32.123Z,1011.39
2018-07-23T03:22:32.088Z,1011.45
2018-07-23T03:23:32.053Z,1011.42
2018-07-23T03:24:32.002Z,1011.42
2018-07-23T03:25:31.963Z,1011.44
2018-07-23T03:26:31.959Z,1011.44
2018-07-23T03:27:42.288Z,1011.45
2018-07-23T03:28:31.855Z,1011.44
2018-07-23T03:29:31.817Z,1011.44
2018-07-23T03:30:31.770Z,1011.45
2018-07-23T03:31:31.755Z,1011.46
2018-07-23T03:32:31.706Z,1011.48
2018-07-23T03:33:31.662Z,1011.45
2018-07-23T03:34:31.618Z,1011.52
2018-07-23T03:35:31.584Z,1011.51
2018-07-23T03:36:31.565Z,1011.55
2018-07-23T03:37:31.503Z,1011.57
2018-07-23T03:38:31.473Z,1011.53
2018-07-23T03:39:31.433Z,1011.54
2018-07-23T03:40:31.395Z,1011.54
2018-07-23T03:41:31.384Z,1011.59
2018-07-23T03:42:31.310Z,1011.57
2018-07-23T03:43:31.274Z,1011.59
2018-07-23T03:44:31.235Z,1011.56
2018-07-23T03:45:31.199Z,1011.55
2018-07-23T03:46:40.846Z,1011.54
2018-07-23T03:47:31.122Z,1011.53
2018-07-23T03:48:31.091Z,1011.59
2018-07-23T03:49:31.053Z,1011.60
2018-07-23T03:50:31.014Z,1011.59
2018-07-23T03:51:30.974Z,1011.59
2018-07-23T03:52:30.953Z,1011.63
2018-07-23T03:53:30.895Z,1011.63
2018-07-23T03:54:30.854Z,1011.64
2018-07-23T03:55:30.813Z,1011.67
2018-07-23T03:56:30.787Z,1011.68
2018-07-23T03:57:30.776Z,1011.66
2018-07-23T03:58:30.706Z,1011.69
2018-07-23T03:59:30.668Z,1011.69
2018-07-23T04:00:30.620Z,1011.74
2018-07-23T04:01:30.583Z,1011.71
2018-07-23T04:02:30.554Z,1011.72
2018-07-23T04:03:30.562Z,1011.70
2018-07-23T04:04:30.471Z,1011.73
2018-07-23T04:05:30.430Z,1011.72
2018-07-23T04:06:30.396Z,1011.74
2018-07-23T04:07:30.354Z,1011.74
2018-07-23T04:08:30.343Z,1011.78
2018-07-23T04:09:30.285Z,1011.77
2018-07-23T04:10:30.251Z,1011.78
2018-07-23T04:11:30.211Z,1011.77
2018-07-23T04:12:30.161Z,1011.78
2018-07-23T04:13:30.151Z,1011.77
2018-07-23T04:14:30.086Z,1011.73
2018-07-23T04:15:30.051Z,1011.73
2018-07-23T04:16:30.019Z,1011.76
2018-07-23T04:17:30.005Z,1011.74
2018-07-23T04:18:29.957Z,1011.77
2018-07-23T04:19:29.896Z,1011.79
2018-07-23T04:20:29.870Z,1011.77
2018-07-23T04:21:29.828Z,1011.79
2018-07-23T04:22:29.791Z,1011.79
2018-07-23T04:23:29.752Z,1011.81
2018-07-23T04:24:39.384Z,1011.84
2018-07-23T04:25:29.666Z,1011.84
2018-07-23T04:26:29.637Z,1011.85
2018-07-23T04:27:29.599Z,1011.86
2018-07-23T04:28:29.565Z,1011.87
2018-07-23T04:29:29.544Z,1011.87
2018-07-23T04:30:29.479Z,1011.86
2018-07-23T04:31:29.439Z,1011.85
2018-07-23T04:32:29.411Z,1011.87
2018-07-23T04:33:29.373Z,1011.88
2018-07-23T04:34:29.353Z,1011.92
2018-07-23T04:35:29.287Z,1011.88
2018-07-23T04:36:29.251Z,1011.89
2018-07-23T04:37:29.211Z,1011.88
2018-07-23T04:38:29.177Z,1011.88
2018-07-23T04:39:29.145Z,1011.91
2018-07-23T04:40:29.123Z,1011.90
2018-07-23T04:41:29.068Z,1011.89
2018-07-23T04:42:39.411Z,1011.87
2018-07-23T04:43:28.984Z,1011.88
2018-07-23T04:44:28.952Z,1011.86
2018-07-23T04:45:28.940Z,1011.91
2018-07-23T04:46:28.870Z,1011.93
2018-07-23T04:47:28.833Z,1011.94
2018-07-23T04:48:28.802Z,1011.93
2018-07-23T04:49:28.769Z,1011.93
2018-07-23T04:50:28.754Z,1011.95
2018-07-23T04:51:28.693Z,1011.98
2018-07-23T04:52:28.646Z,1012.00
2018-07-23T04:53:28.611Z,1012.04
2018-07-23T04:54:28.570Z,1012.10
2018-07-23T04:55:28.563Z,1012.13
2018-07-23T04:56:28.507Z,1012.14
2018-07-23T04:57:28.469Z,1012.17
2018-07-23T04:58:28.432Z,1012.18
2018-07-23T04:59:28.393Z,1012.19
2018-07-23T05:00:37.972Z,1012.16
2018-07-23T05:01:28.328Z,1012.19
2018-07-23T05:02:28.276Z,1012.21
2018-07-23T05:03:28.245Z,1012.25
2018-07-23T05:04:28.207Z,1012.25
2018-07-23T05:05:28.181Z,1012.26
2018-07-23T05:06:28.168Z,1012.30
2018-07-23T05:07:28.107Z,1012.33
2018-07-23T05:08:28.072Z,1012.41
2018-07-23T05:09:28.036Z,1012.32
2018-07-23T05:10:27.996Z,1012.35
2018-07-23T05:11:27.996Z,1012.35
2018-07-23T05:12:27.927Z,1012.35
2018-07-23T05:13:27.894Z,1012.35
2018-07-23T05:14:27.868Z,1012.34
2018-07-23T05:15:27.826Z,1012.40
2018-07-23T05:16:27.787Z,1012.40
2018-07-23T05:17:27.783Z,1012.36
2018-07-23T05:18:27.734Z,1012.38
2018-07-23T05:19:38.990Z,1012.37
2018-07-23T05:20:27.654Z,1012.30
2018-07-23T05:21:27.614Z,1012.29
2018-07-23T05:22:27.613Z,1012.21
2018-07-23T05:23:27.552Z,1012.25
2018-07-23T05:24:27.570Z,1012.21
2018-07-23T05:25:27.489Z,1012.24
2018-07-23T05:26:27.457Z,1012.33
2018-07-23T05:27:27.450Z,1012.27
2018-07-23T05:28:27.386Z,1012.36
2018-07-23T05:29:27.352Z,1012.40
2018-07-23T05:30:27.335Z,1012.41
2018-07-23T05:31:27.294Z,1012.30
2018-07-23T05:32:27.279Z,1012.45
2018-07-23T05:33:27.214Z,1012.44
2018-07-23T05:34:27.188Z,1012.45
2018-07-23T05:35:27.152Z,1012.48
2018-07-23T05:36:27.124Z,1012.47
2018-07-23T05:37:27.089Z,1012.47
2018-07-23T05:38:37.075Z,1012.36
2018-07-23T05:39:27.020Z,1012.44
2018-07-23T05:40:26.991Z,1012.52
2018-07-23T05:41:26.954Z,1012.48
2018-07-23T05:42:26.933Z,1012.49
2018-07-23T05:43:26.916Z,1012.51
2018-07-23T05:44:26.852Z,1012.51
2018-07-23T05:45:26.818Z,1012.55
2018-07-23T05:46:26.799Z,1012.57
2018-07-23T05:47:26.762Z,1012.60
2018-07-23T05:48:26.768Z,1012.51
2018-07-23T05:49:26.695Z,1012.63
2018-07-23T05:50:26.654Z,1012.62
2018-07-23T05:51:26.625Z,1012.57
2018-07-23T05:52:26.599Z,1012.64
2018-07-23T05:53:26.562Z,1012.56
2018-07-23T05:54:26.558Z,1012.45
2018-07-23T05:55:26.508Z,1012.47
2018-07-23T05:56:26.474Z,1012.43
2018-07-23T05:57:26.447Z,1012.47
2018-07-23T05:58:35.585Z,1012.37
2018-07-23T05:59:26.399Z,1012.43
2018-07-23T06:00:26.337Z,1012.36
2018-07-23T06:01:26.311Z,1012.38
2018-07-23T06:02:26.272Z,1012.34
2018-07-23T06:03:26.245Z,1012.42
2018-07-23T06:04:26.242Z,1012.42
2018-07-23T06:05:26.183Z,1012.39
2018-07-23T06:06:26.175Z,1012.47
2018-07-23T06:07:26.119Z,1012.42
2018-07-23T06:08:26.079Z,1012.44
2018-07-23T06:09:26.049Z,1012.46
2018-07-23T06:10:26.038Z,1012.41
2018-07-23T06:11:25.984Z,1012.45
2018-07-23T06:12:25.958Z,1012.49
2018-07-23T06:13:25.979Z,1012.45
2018-07-23T06:14:25.890Z,1012.44
2018-07-23T06:15:25.873Z,1012.49
2018-07-23T06:16:25.826Z,1012.43
2018-07-23T06:17:25.799Z,1012.52
2018-07-23T06:18:36.110Z,1012.47
2018-07-23T06:19:25.721Z,1012.53
2018-07-23T06:20:25.709Z,1012.58
2018-07-23T06:21:25.651Z,1012.71
2018-07-23T06:22:25.628Z,1012.79
2018-07-23T06:23:25.594Z,1012.63
2018-07-23T06:24:25.562Z,1012.61
2018-07-23T06:25:25.563Z,1012.56
2018-07-23T06:26:25.490Z,1012.69
2018-07-23T06:27:25.458Z,1012.84
2018-07-23T06:28:25.428Z,1012.98
2018-07-23T06:29:25.398Z,1013.01
2018-07-23T06:30:25.396Z,1013.18
2018-07-23T06:31:25.347Z,1013.22
2018-07-23T06:32:25.296Z,1013.22
2018-07-23T06:33:25.259Z,1013.15
2018-07-23T06:34:25.237Z,1012.73
2018-07-23T06:35:25.207Z,1012.88
2018-07-23T06:36:25.194Z,1013.17
2018-07-23T06:37:25.137Z,1013.15
2018-07-23T06:38:25.098Z,1013.11
2018-07-23T06:39:25.071Z,1013.08
2018-07-23T06:40:25.037Z,1013.11
2018-07-23T06:41:25.032Z,1013.17
2018-07-23T06:42:24.981Z,1013.12
2018-07-23T06:43:25.013Z,1013.15
2018-07-23T06:44:24.912Z,1013.22
2018-07-23T06:45:24.882Z,1013.19
2018-07-23T06:46:24.882Z,1013.24
2018-07-23T06:47:24.824Z,1013.30
2018-07-23T06:48:24.795Z,1013.30
2018-07-23T06:49:24.762Z,1013.31
2018-07-23T06:50:24.726Z,1013.33
2018-07-23T06:51:24.695Z,1013.40
2018-07-23T06:52:24.685Z,1013.45
2018-07-23T06:53:24.631Z,1013.48
2018-07-23T06:54:24.608Z,1013.58
2018-07-23T06:55:24.590Z,1013.57
2018-07-23T06:56:34.664Z,1013.58
2018-07-23T06:57:24.571Z,1013.61
2018-07-23T06:58:24.490Z,1013.69
2018-07-23T06:59:24.457Z,1013.80
2018-07-23T07:00:24.423Z,1013.85
2018-07-23T07:01:24.390Z,1013.90
2018-07-23T07:02:24.361Z,1013.86
2018-07-23T07:03:24.362Z,1013.68
2018-07-23T07:04:24.309Z,1013.66
2018-07-23T07:05:24.279Z,1013.72
2018-07-23T07:06:24.304Z,1013.87
2018-07-23T07:07:24.220Z,1013.95
2018-07-23T07:08:24.227Z,1013.93
2018-07-23T07:09:24.157Z,1013.95
2018-07-23T07:10:24.120Z,1013.94
2018-07-23T07:11:24.094Z,1013.90
2018-07-23T07:12:24.069Z,1013.74
2018-07-23T07:13:24.127Z,1013.58
2018-07-23T07:14:24.005Z,1013.67
2018-07-23T07:15:23.975Z,1013.77
2018-07-23T07:16:23.951Z,1013.75
2018-07-23T07:17:23.926Z,1013.75
2018-07-23T07:18:23.895Z,1013.77
2018-07-23T07:19:23.888Z,1013.72
2018-07-23T07:20:23.828Z,1013.57
2018-07-23T07:21:23.800Z,1013.60
2018-07-23T07:22:23.764Z,1013.62
2018-07-23T07:23:23.736Z,1013.44
2018-07-23T07:24:23.756Z,1013.38
2018-07-23T07:25:23.707Z,1013.42
2018-07-23T07:26:23.656Z,1013.29
2018-07-23T07:27:23.628Z,1013.29
2018-07-23T07:28:23.592Z,1013.30
2018-07-23T07:29:23.592Z,1012.99
2018-07-23T07:30:23.543Z,1012.88
2018-07-23T07:31:23.511Z,1012.89
2018-07-23T07:32:23.477Z,1012.87
2018-07-23T07:33:23.443Z,1012.85
2018-07-23T07:34:23.415Z,1012.80
2018-07-23T07:35:23.410Z,1012.81
2018-07-23T07:36:33.732Z,1012.83
2018-07-23T07:37:23.336Z,1012.83
2018-07-23T07:38:23.348Z,1012.81
2018-07-23T07:39:23.267Z,1012.81
2018-07-23T07:40:23.259Z,1012.76
2018-07-23T07:41:23.204Z,1012.81
2018-07-23T07:42:23.185Z,1012.79
2018-07-23T07:43:23.154Z,1012.81
2018-07-23T07:44:23.116Z,1012.79
2018-07-23T07:45:23.105Z,1012.81
2018-07-23T07:46:23.072Z,1012.80
2018-07-23T07:47:23.028Z,1012.80
2018-07-23T07:48:23.000Z,1012.84
2018-07-23T07:49:22.968Z,1012.84
2018-07-23T07:50:22.957Z,1012.81
2018-07-23T07:51:22.898Z,1012.69
2018-07-23T07:52:22.867Z,1012.72
2018-07-23T07:53:22.849Z,1012.73
2018-07-23T07:54:22.814Z,1012.72
2018-07-23T07:55:22.788Z,1012.72
2018-07-23T07:56:32.775Z,1012.70
2018-07-23T07:57:22.724Z,1012.68
2018-07-23T07:58:22.691Z,1012.69
2018-07-23T07:59:22.658Z,1012.70
2018-07-23T08:00:22.619Z,1012.74
2018-07-23T08:01:22.619Z,1012.73
2018-07-23T08:02:22.559Z,1012.71
2018-07-23T08:03:22.531Z,1012.76
2018-07-23T08:04:22.502Z,1012.70
2018-07-23T08:05:22.474Z,1012.72
2018-07-23T08:06:22.441Z,1012.74
2018-07-23T08:07:22.431Z,1012.71
2018-07-23T08:08:22.370Z,1012.75
2018-07-23T08:09:22.339Z,1012.77
2018-07-23T08:10:22.315Z,1012.79
2018-07-23T08:11:22.277Z,1012.83
2018-07-23T08:12:22.282Z,1012.77
2018-07-23T08:13:22.223Z,1012.69
2018-07-23T08:14:22.193Z,1012.74
2018-07-23T08:15:22.155Z,1012.72
2018-07-23T08:16:22.130Z,1012.72
2018-07-23T08:17:22.122Z,1012.69
2018-07-23T08:18:22.067Z,1012.68
2018-07-23T08:19:22.033Z,1012.68
2018-07-23T08:20:21.998Z,1012.66
2018-07-23T08:21:21.966Z,1012.71
2018-07-23T08:22:21.938Z,1012.70
2018-07-23T08:23:21.923Z,1012.70
2018-07-23T08:24:21.878Z,1012.70
2018-07-23T08:25:21.847Z,1012.68
2018-07-23T08:26:21.816Z,1012.69
2018-07-23T08:27:21.786Z,1012.75
2018-07-23T08:28:21.770Z,1012.70
2018-07-23T08:29:21.716Z,1012.72
2018-07-23T08:30:21.695Z,1012.76
2018-07-23T08:31:21.665Z,1012.75
2018-07-23T08:32:21.675Z,1012.77
2018-07-23T08:33:21.612Z,1012.76
2018-07-23T08:34:21.560Z,1012.77
2018-07-23T08:35:21.526Z,1012.75
2018-07-23T08:36:31.808Z,1012.74
2018-07-23T08:37:21.476Z,1012.76
2018-07-23T08:38:21.460Z,1012.75
2018-07-23T08:39:21.401Z,1012.74
2018-07-23T08:40:21.373Z,1012.73
2018-07-23T08:41:21.339Z,1012.71
2018-07-23T08:42:21.317Z,1012.72
2018-07-23T08:43:21.285Z,1012.67
2018-07-23T08:44:21.274Z,1012.67
2018-07-23T08:45:21.215Z,1012.72
2018-07-23T08:46:21.187Z,1012.70
2018-07-23T08:47:21.166Z,1012.70
2018-07-23T08:48:21.125Z,1012.66
2018-07-23T08:49:21.116Z,1012.65
2018-07-23T08:50:21.056Z,1012.66
2018-07-23T08:51:21.075Z,1012.66
2018-07-23T08:52:20.998Z,1012.71
2018-07-23T08:53:20.961Z,1012.76
2018-07-23T08:54:20.961Z,1012.82
2018-07-23T08:55:20.900Z,1012.79
2018-07-23T08:56:20.873Z,1012.76
2018-07-23T08:57:20.871Z,1012.83
2018-07-23T08:58:20.805Z,1012.83
2018-07-23T08:59:20.768Z,1012.86
2018-07-23T09:00:20.781Z,1013.10
2018-07-23T09:01:20.714Z,1013.30
2018-07-23T09:02:20.735Z,1013.04
2018-07-23T09:03:20.640Z,1012.93
2018-07-23T09:04:20.614Z,1012.86
2018-07-23T09:05:20.603Z,1012.85
2018-07-23T09:06:20.561Z,1012.87
2018-07-23T09:07:20.528Z,1012.87
2018-07-23T09:08:20.536Z,1012.92
2018-07-23T09:09:20.465Z,1012.87
2018-07-23T09:10:20.455Z,1012.95
2018-07-23T09:11:20.401Z,1013.10
2018-07-23T09:12:20.372Z,1013.09
2018-07-23T09:13:20.340Z,1013.03
2018-07-23T09:14:20.312Z,1012.92
2018-07-23T09:15:29.875Z,1012.90
2018-07-23T09:16:20.256Z,1012.96
2018-07-23T09:17:20.244Z,1012.99
2018-07-23T09:18:20.193Z,1012.91
2018-07-23T09:19:20.165Z,1012.88
2018-07-23T09:20:20.138Z,1012.93
2018-07-23T09:21:20.121Z,1012.96
2018-07-23T09:22:20.067Z,1012.98
2018-07-23T09:23:20.042Z,1013.25
2018-07-23T09:24:20.016Z,1013.15
2018-07-23T09:25:19.982Z,1013.35
2018-07-23T09:26:19.977Z,1013.50
2018-07-23T09:27:19.922Z,1013.55
2018-07-23T09:28:19.896Z,1013.20
2018-07-23T09:29:19.862Z,1013.28
2018-07-23T09:30:19.843Z,1013.47
2018-07-23T09:31:19.844Z,1013.19
2018-07-23T09:32:19.775Z,1013.24
2018-07-23T09:33:19.744Z,1013.30
2018-07-23T09:34:19.722Z,1013.37
2018-07-23T09:35:29.922Z,1013.27
2018-07-23T09:36:19.675Z,1013.25
2018-07-23T09:37:19.677Z,1013.25
2018-07-23T09:38:19.616Z,1013.18
2018-07-23T09:39:19.592Z,1013.13
2018-07-23T09:40:19.562Z,1013.11
2018-07-23T09:41:19.540Z,1013.14
2018-07-23T09:42:19.541Z,1013.23
2018-07-23T09:43:19.490Z,1013.07
2018-07-23T09:44:19.465Z,1013.29
2018-07-23T09:45:19.436Z,1012.96
2018-07-23T09:46:19.417Z,1012.88
2018-07-23T09:47:19.417Z,1012.88
2018-07-23T09:48:19.370Z,1013.30
2018-07-23T09:49:19.344Z,1013.31
2018-07-23T09:50:19.314Z,1013.45
2018-07-23T09:51:19.291Z,1013.15
2018-07-23T09:52:19.300Z,1013.20
2018-07-23T09:53:19.254Z,1013.20
2018-07-23T09:54:19.236Z,1013.06
2018-07-23T09:55:30.443Z,1013.08
2018-07-23T09:56:19.171Z,1013.01
2018-07-23T09:57:19.146Z,1012.88
2018-07-23T09:58:19.146Z,1012.90
2018-07-23T09:59:19.102Z,1012.90
2018-07-23T10:00:19.069Z,1012.85
2018-07-23T10:01:19.045Z,1012.83
2018-07-23T10:02:19.021Z,1012.83
2018-07-23T10:03:19.082Z,1012.87
2018-07-23T10:04:18.982Z,1013.17
2018-07-23T10:05:18.955Z,1013.29
2018-07-23T10:06:18.939Z,1013.12
2018-07-23T10:07:18.906Z,1013.07
2018-07-23T10:08:18.876Z,1012.98
2018-07-23T10:09:18.870Z,1013.05
2018-07-23T10:10:18.829Z,1013.13
2018-07-23T10:11:18.799Z,1013.03
2018-07-23T10:12:18.785Z,1012.76
2018-07-23T10:13:18.751Z,1012.78
2018-07-23T10:14:18.745Z,1012.83
2018-07-23T10:15:18.694Z,1013.15
2018-07-23T10:16:18.680Z,1012.89
2018-07-23T10:17:18.652Z,1012.89
2018-07-23T10:18:18.626Z,1012.92
2018-07-23T10:19:18.636Z,1013.01
2018-07-23T10:20:18.565Z,1012.91
2018-07-23T10:21:18.544Z,1012.78
2018-07-23T10:22:18.592Z,1012.75
2018-07-23T10:23:18.492Z,1012.87
2018-07-23T10:24:18.473Z,1012.84
2018-07-23T10:25:18.474Z,1012.89
2018-07-23T10:26:18.429Z,1012.93
2018-07-23T10:27:18.402Z,1012.83
2018-07-23T10:28:18.373Z,1012.91
2018-07-23T10:29:18.343Z,1012.74
2018-07-23T10:30:18.354Z,1012.84
2018-07-23T10:31:18.298Z,1012.69
2018-07-23T10:32:18.273Z,1012.64
2018-07-23T10:33:18.244Z,1012.59
2018-07-23T10:34:18.234Z,1012.61
2018-07-23T10:35:18.217Z,1012.71
2018-07-23T10:36:18.170Z,1012.74
2018-07-23T10:37:18.151Z,1012.71
2018-07-23T10:38:18.123Z,1012.63
2018-07-23T10:39:18.098Z,1012.67
2018-07-23T10:40:18.067Z,1012.70
2018-07-23T10:41:18.075Z,1012.66
2018-07-23T10:42:18.010Z,1012.65
2018-07-23T10:43:18.014Z,1012.65
2018-07-23T10:44:17.966Z,1012.60
2018-07-23T10:45:17.939Z,1012.61
2018-07-23T10:46:17.924Z,1012.63
2018-07-23T10:47:17.883Z,1012.59
2018-07-23T10:48:17.856Z,1012.57
2018-07-23T10:49:17.832Z,1012.58
2018-07-23T10:50:17.798Z,1012.59
2018-07-23T10:51:17.794Z,1012.58
2018-07-23T10:52:17.744Z,1012.59
2018-07-23T10:53:17.710Z,1012.57
2018-07-23T10:54:17.679Z,1012.57
2018-07-23T10:55:17.651Z,1012.57
2018-07-23T10:56:17.657Z,1012.51
2018-07-23T10:57:17.647Z,1012.49
2018-07-23T10:58:17.576Z,1012.47
2018-07-23T10:59:17.553Z,1012.51
2018-07-23T11:00:17.508Z,1012.49
2018-07-23T11:01:17.487Z,1012.46
2018-07-23T11:02:17.480Z,1012.45
2018-07-23T11:03:17.426Z,1012.48
2018-07-23T11:04:17.442Z,1012.51
2018-07-23T11:05:17.361Z,1012.49
2018-07-23T11:06:17.339Z,1012.51
2018-07-23T11:07:17.346Z,1012.47
2018-07-23T11:08:17.283Z,1012.46
2018-07-23T11:09:17.257Z,1012.43
2018-07-23T11:10:17.220Z,1012.44
2018-07-23T11:11:17.189Z,1012.44
2018-07-23T11:12:17.189Z,1012.41
2018-07-23T11:13:17.144Z,1012.38
2018-07-23T11:14:17.119Z,1012.38
2018-07-23T11:15:17.078Z,1012.35
2018-07-23T11:16:17.048Z,1012.50
2018-07-23T11:17:17.009Z,1012.45
2018-07-23T11:18:17.012Z,1012.49
2018-07-23T11:19:16.990Z,1012.49
2018-07-23T11:20:16.921Z,1012.62
2018-07-23T11:21:16.893Z,1012.80
2018-07-23T11:22:16.860Z,1012.82
2018-07-23T11:23:16.860Z,1012.81
2018-07-23T11:24:16.813Z,1012.71
2018-07-23T11:25:38.703Z,1012.64
2018-07-23T11:26:16.774Z,1012.63
2018-07-23T11:27:16.729Z,1012.60
2018-07-23T11:28:16.719Z,1012.43
2018-07-23T11:29:16.660Z,1012.42
2018-07-23T11:30:16.637Z,1012.43
2018-07-23T11:31:16.604Z,1012.41
2018-07-23T11:32:16.584Z,1012.35
2018-07-23T11:33:16.556Z,1012.33
2018-07-23T11:34:16.539Z,1012.40
2018-07-23T11:35:27.018Z,1012.52
2018-07-23T11:36:16.481Z,1012.53
2018-07-23T11:37:16.448Z,1012.48
2018-07-23T11:38:16.418Z,1012.48
2018-07-23T11:39:16.409Z,1012.45
2018-07-23T11:40:16.366Z,1012.43
2018-07-23T11:41:16.335Z,1012.37
2018-07-23T11:42:16.318Z,1012.38
2018-07-23T11:43:16.290Z,1012.36
2018-07-23T11:44:16.296Z,1012.33
2018-07-23T11:45:16.270Z,1012.31
2018-07-23T11:46:24.420Z,1012.35
2018-07-23T11:47:16.195Z,1012.26
2018-07-23T11:48:16.198Z,1012.32
2018-07-23T11:49:16.166Z,1012.25
2018-07-23T11:50:16.110Z,1012.21
2018-07-23T11:51:16.084Z,1012.22
2018-07-23T11:52:16.061Z,1012.20
2018-07-23T11:53:16.049Z,1012.17
2018-07-23T11:54:26.584Z,1012.21
2018-07-23T11:55:15.988Z,1012.26
2018-07-23T11:56:15.956Z,1012.24
2018-07-23T11:57:15.930Z,1012.21
2018-07-23T11:58:15.907Z,1012.20
2018-07-23T11:59:15.878Z,1012.20
2018-07-23T12:00:15.877Z,1012.15
2018-07-23T12:01:15.827Z,1012.18
2018-07-23T12:02:15.797Z,1012.21
2018-07-23T12:03:15.768Z,1012.15
2018-07-23T12:04:15.813Z,1012.17
2018-07-23T12:05:15.744Z,1012.16